sensor_id;sensor_type;location;lat;lon;timestamp;temperature;humidity
20712;DHT22;10517;50.742;4.224;2023-06-10T00:00:42;22.50;98.30
20712;DHT22;10517;50.742;4.224;2023-06-10T00:03:08;22.50;98.40
20712;DHT22;10517;50.742;4.224;2023-06-10T00:05:37;22.50;99.00
20712;DHT22;10517;50.742;4.224;2023-06-10T00:08:04;22.50;98.30
20712;DHT22;10517;50.742;4.224;2023-06-10T00:10:36;22.50;98.90
20712;DHT22;10517;50.742;4.224;2023-06-10T00:13:06;22.50;98.90
20712;DHT22;10517;50.742;4.224;2023-06-10T00:15:34;22.40;99.00
20712;DHT22;10517;50.742;4.224;2023-06-10T00:18:01;22.30;99.40
20712;DHT22;10517;50.742;4.224;2023-06-10T00:20:29;22.20;99.50
20712;DHT22;10517;50.742;4.224;2023-06-10T00:22:56;22.30;99.50
20712;DHT22;10517;50.742;4.224;2023-06-10T00:25:22;22.20;99.70
20712;DHT22;10517;50.742;4.224;2023-06-10T00:27:48;22.20;99.80
20712;DHT22;10517;50.742;4.224;2023-06-10T00:30:13;22.10;99.90
20712;DHT22;10517;50.742;4.224;2023-06-10T00:32:39;22.10;99.90
20712;DHT22;10517;50.742;4.224;2023-06-10T00:35:06;22.10;99.90
20712;DHT22;10517;50.742;4.224;2023-06-10T00:37:32;22.10;99.90
20712;DHT22;10517;50.742;4.224;2023-06-10T00:40:00;22.00;99.90
20712;DHT22;10517;50.742;4.224;2023-06-10T00:42:25;22.00;99.90
20712;DHT22;10517;50.742;4.224;2023-06-10T00:44:51;22.00;99.90
20712;DHT22;10517;50.742;4.224;2023-06-10T00:47:17;21.90;99.90
20712;DHT22;10517;50.742;4.224;2023-06-10T00:49:44;21.90;99.90
20712;DHT22;10517;50.742;4.224;2023-06-10T00:52:10;21.80;99.90
20712;DHT22;10517;50.742;4.224;2023-06-10T00:54:39;21.70;99.90
20712;DHT22;10517;50.742;4.224;2023-06-10T00:57:05;21.60;99.90
20712;DHT22;10517;50.742;4.224;2023-06-10T00:59:31;21.60;99.90
20712;DHT22;10517;50.742;4.224;2023-06-10T01:01:58;21.50;99.90
20712;DHT22;10517;50.742;4.224;2023-06-10T01:04:24;21.40;99.90
20712;DHT22;10517;50.742;4.224;2023-06-10T01:12:45;21.40;99.90
20712;DHT22;10517;50.742;4.224;2023-06-10T01:15:14;21.50;99.90
20712;DHT22;10517;50.742;4.224;2023-06-10T01:20:19;21.40;99.90
20712;DHT22;10517;50.742;4.224;2023-06-10T01:22:45;21.30;99.90
20712;DHT22;10517;50.742;4.224;2023-06-10T01:25:11;21.40;99.90
20712;DHT22;10517;50.742;4.224;2023-06-10T01:27:38;21.40;99.90
20712;DHT22;10517;50.742;4.224;2023-06-10T01:30:18;21.40;99.90
20712;DHT22;10517;50.742;4.224;2023-06-10T01:32:48;21.30;99.90
20712;DHT22;10517;50.742;4.224;2023-06-10T01:35:16;21.30;99.90
20712;DHT22;10517;50.742;4.224;2023-06-10T01:37:46;21.30;99.90
20712;DHT22;10517;50.742;4.224;2023-06-10T01:40:12;21.20;99.90
20712;DHT22;10517;50.742;4.224;2023-06-10T01:42:39;21.20;99.90
20712;DHT22;10517;50.742;4.224;2023-06-10T01:45:05;21.20;99.90
20712;DHT22;10517;50.742;4.224;2023-06-10T01:47:30;21.20;99.90
20712;DHT22;10517;50.742;4.224;2023-06-10T01:49:56;21.30;99.90
20712;DHT22;10517;50.742;4.224;2023-06-10T01:52:22;21.30;99.90
20712;DHT22;10517;50.742;4.224;2023-06-10T01:54:48;21.30;99.90
20712;DHT22;10517;50.742;4.224;2023-06-10T01:57:13;21.20;99.90
20712;DHT22;10517;50.742;4.224;2023-06-10T01:59:39;21.20;99.90
20712;DHT22;10517;50.742;4.224;2023-06-10T02:02:05;21.10;99.90
20712;DHT22;10517;50.742;4.224;2023-06-10T02:04:31;21.20;99.90
20712;DHT22;10517;50.742;4.224;2023-06-10T02:06:56;21.20;99.90
20712;DHT22;10517;50.742;4.224;2023-06-10T02:09:22;21.10;99.90
20712;DHT22;10517;50.742;4.224;2023-06-10T02:11:48;21.10;99.90
20712;DHT22;10517;50.742;4.224;2023-06-10T02:14:14;21.10;99.90
20712;DHT22;10517;50.742;4.224;2023-06-10T02:16:40;21.10;99.90
20712;DHT22;10517;50.742;4.224;2023-06-10T02:19:06;21.00;99.90
20712;DHT22;10517;50.742;4.224;2023-06-10T02:21:32;21.00;99.90
20712;DHT22;10517;50.742;4.224;2023-06-10T02:24:00;21.10;99.90
20712;DHT22;10517;50.742;4.224;2023-06-10T02:26:25;21.00;99.90
20712;DHT22;10517;50.742;4.224;2023-06-10T02:28:51;21.00;99.90
20712;DHT22;10517;50.742;4.224;2023-06-10T02:31:17;20.90;99.90
20712;DHT22;10517;50.742;4.224;2023-06-10T02:33:43;20.90;99.90
20712;DHT22;10517;50.742;4.224;2023-06-10T02:36:10;20.80;99.90
20712;DHT22;10517;50.742;4.224;2023-06-10T02:38:39;20.80;99.90
20712;DHT22;10517;50.742;4.224;2023-06-10T02:41:06;20.70;99.90
20712;DHT22;10517;50.742;4.224;2023-06-10T02:43:31;20.70;99.90
20712;DHT22;10517;50.742;4.224;2023-06-10T02:45:57;20.70;99.90
20712;DHT22;10517;50.742;4.224;2023-06-10T02:48:27;20.70;99.90
20712;DHT22;10517;50.742;4.224;2023-06-10T02:50:53;20.70;99.90
20712;DHT22;10517;50.742;4.224;2023-06-10T02:53:18;20.60;99.90
20712;DHT22;10517;50.742;4.224;2023-06-10T02:55:44;20.50;99.90
20712;DHT22;10517;50.742;4.224;2023-06-10T02:58:10;20.50;99.90
20712;DHT22;10517;50.742;4.224;2023-06-10T03:00:35;20.50;99.90
20712;DHT22;10517;50.742;4.224;2023-06-10T03:03:03;20.50;99.90
20712;DHT22;10517;50.742;4.224;2023-06-10T03:05:30;20.50;99.90
20712;DHT22;10517;50.742;4.224;2023-06-10T03:07:55;20.50;99.90
20712;DHT22;10517;50.742;4.224;2023-06-10T03:10:21;20.40;99.90
20712;DHT22;10517;50.742;4.224;2023-06-10T03:12:46;20.40;99.90
20712;DHT22;10517;50.742;4.224;2023-06-10T03:15:12;20.40;99.90
20712;DHT22;10517;50.742;4.224;2023-06-10T03:17:38;20.40;99.90
20712;DHT22;10517;50.742;4.224;2023-06-10T03:20:04;20.30;99.90
20712;DHT22;10517;50.742;4.224;2023-06-10T03:22:31;20.20;99.90
20712;DHT22;10517;50.742;4.224;2023-06-10T03:24:56;20.20;99.90
20712;DHT22;10517;50.742;4.224;2023-06-10T03:27:23;20.20;99.90
20712;DHT22;10517;50.742;4.224;2023-06-10T03:29:48;20.20;99.90
20712;DHT22;10517;50.742;4.224;2023-06-10T03:32:14;20.10;99.90
20712;DHT22;10517;50.742;4.224;2023-06-10T03:34:40;20.00;99.90
20712;DHT22;10517;50.742;4.224;2023-06-10T03:37:06;19.90;99.90
20712;DHT22;10517;50.742;4.224;2023-06-10T03:39:32;19.80;99.90
20712;DHT22;10517;50.742;4.224;2023-06-10T03:41:58;19.90;99.90
20712;DHT22;10517;50.742;4.224;2023-06-10T03:44:24;19.80;99.90
20712;DHT22;10517;50.742;4.224;2023-06-10T03:46:51;19.70;99.90
20712;DHT22;10517;50.742;4.224;2023-06-10T03:49:17;19.60;99.90
20712;DHT22;10517;50.742;4.224;2023-06-10T03:51:43;19.60;99.90
20712;DHT22;10517;50.742;4.224;2023-06-10T03:54:08;19.50;99.90
20712;DHT22;10517;50.742;4.224;2023-06-10T03:56:35;19.50;99.90
20712;DHT22;10517;50.742;4.224;2023-06-10T03:59:00;19.50;99.90
20712;DHT22;10517;50.742;4.224;2023-06-10T04:01:26;19.50;99.90
20712;DHT22;10517;50.742;4.224;2023-06-10T04:03:52;19.50;99.90
20712;DHT22;10517;50.742;4.224;2023-06-10T04:06:20;19.50;99.90
20712;DHT22;10517;50.742;4.224;2023-06-10T04:08:48;19.40;99.90
20712;DHT22;10517;50.742;4.224;2023-06-10T04:11:13;19.40;99.90
20712;DHT22;10517;50.742;4.224;2023-06-10T04:13:39;19.40;99.90
20712;DHT22;10517;50.742;4.224;2023-06-10T04:16:05;19.30;99.90
20712;DHT22;10517;50.742;4.224;2023-06-10T04:18:30;19.30;99.90
20712;DHT22;10517;50.742;4.224;2023-06-10T04:20:56;19.30;99.90
20712;DHT22;10517;50.742;4.224;2023-06-10T04:23:22;19.30;99.90
20712;DHT22;10517;50.742;4.224;2023-06-10T04:25:48;19.30;99.90
20712;DHT22;10517;50.742;4.224;2023-06-10T04:28:13;19.30;99.90
20712;DHT22;10517;50.742;4.224;2023-06-10T04:30:39;19.30;99.90
20712;DHT22;10517;50.742;4.224;2023-06-10T04:33:04;19.30;99.90
20712;DHT22;10517;50.742;4.224;2023-06-10T04:35:32;19.40;99.90
20712;DHT22;10517;50.742;4.224;2023-06-10T04:37:57;19.40;99.90
20712;DHT22;10517;50.742;4.224;2023-06-10T04:40:23;19.50;99.90
20712;DHT22;10517;50.742;4.224;2023-06-10T04:42:49;19.60;99.90
20712;DHT22;10517;50.742;4.224;2023-06-10T04:45:14;19.70;99.90
20712;DHT22;10517;50.742;4.224;2023-06-10T04:47:40;19.80;99.90
20712;DHT22;10517;50.742;4.224;2023-06-10T04:50:06;19.90;99.90
20712;DHT22;10517;50.742;4.224;2023-06-10T04:52:32;20.00;99.90
20712;DHT22;10517;50.742;4.224;2023-06-10T04:54:59;19.90;99.90
20712;DHT22;10517;50.742;4.224;2023-06-10T04:57:24;20.00;99.90
20712;DHT22;10517;50.742;4.224;2023-06-10T04:59:51;19.90;99.90
20712;DHT22;10517;50.742;4.224;2023-06-10T05:02:17;20.00;99.90
20712;DHT22;10517;50.742;4.224;2023-06-10T05:04:43;20.00;99.90
20712;DHT22;10517;50.742;4.224;2023-06-10T05:07:08;20.10;99.90
20712;DHT22;10517;50.742;4.224;2023-06-10T05:09:34;20.20;99.90
20712;DHT22;10517;50.742;4.224;2023-06-10T05:12:00;20.30;99.90
20712;DHT22;10517;50.742;4.224;2023-06-10T05:14:25;20.40;99.90
20712;DHT22;10517;50.742;4.224;2023-06-10T05:16:51;20.40;99.90
20712;DHT22;10517;50.742;4.224;2023-06-10T05:19:16;20.50;99.90
20712;DHT22;10517;50.742;4.224;2023-06-10T05:21:43;20.60;99.90
20712;DHT22;10517;50.742;4.224;2023-06-10T05:24:09;20.60;99.90
20712;DHT22;10517;50.742;4.224;2023-06-10T05:26:35;20.70;99.90
20712;DHT22;10517;50.742;4.224;2023-06-10T05:29:04;20.70;99.90
20712;DHT22;10517;50.742;4.224;2023-06-10T05:31:30;20.70;99.90
20712;DHT22;10517;50.742;4.224;2023-06-10T05:33:56;20.80;99.90
20712;DHT22;10517;50.742;4.224;2023-06-10T05:36:22;20.80;99.90
20712;DHT22;10517;50.742;4.224;2023-06-10T05:38:48;20.80;99.90
20712;DHT22;10517;50.742;4.224;2023-06-10T05:41:13;20.90;99.90
20712;DHT22;10517;50.742;4.224;2023-06-10T05:43:39;21.00;99.90
20712;DHT22;10517;50.742;4.224;2023-06-10T05:46:05;21.00;99.90
20712;DHT22;10517;50.742;4.224;2023-06-10T05:48:31;21.10;99.90
20712;DHT22;10517;50.742;4.224;2023-06-10T05:50:56;21.20;99.90
20712;DHT22;10517;50.742;4.224;2023-06-10T05:53:22;21.20;99.90
20712;DHT22;10517;50.742;4.224;2023-06-10T05:55:47;21.30;99.90
20712;DHT22;10517;50.742;4.224;2023-06-10T05:58:14;21.40;99.90
20712;DHT22;10517;50.742;4.224;2023-06-10T06:00:40;21.40;99.90
20712;DHT22;10517;50.742;4.224;2023-06-10T06:03:07;21.30;99.90
20712;DHT22;10517;50.742;4.224;2023-06-10T06:05:36;21.30;99.90
20712;DHT22;10517;50.742;4.224;2023-06-10T06:08:04;21.40;99.90
20712;DHT22;10517;50.742;4.224;2023-06-10T06:10:30;21.50;99.90
20712;DHT22;10517;50.742;4.224;2023-06-10T06:12:55;21.60;99.90
20712;DHT22;10517;50.742;4.224;2023-06-10T06:15:21;21.70;99.90
20712;DHT22;10517;50.742;4.224;2023-06-10T06:17:47;21.80;99.90
20712;DHT22;10517;50.742;4.224;2023-06-10T06:20:12;21.80;99.90
20712;DHT22;10517;50.742;4.224;2023-06-10T06:22:38;21.90;99.90
20712;DHT22;10517;50.742;4.224;2023-06-10T06:25:04;22.00;99.90
20712;DHT22;10517;50.742;4.224;2023-06-10T06:27:30;22.10;99.90
20712;DHT22;10517;50.742;4.224;2023-06-10T06:29:56;22.20;99.90
20712;DHT22;10517;50.742;4.224;2023-06-10T06:32:21;22.20;99.90
20712;DHT22;10517;50.742;4.224;2023-06-10T06:34:48;22.20;99.90
20712;DHT22;10517;50.742;4.224;2023-06-10T06:37:21;22.30;99.90
20712;DHT22;10517;50.742;4.224;2023-06-10T06:39:46;22.30;99.90
20712;DHT22;10517;50.742;4.224;2023-06-10T06:42:12;22.40;99.90
20712;DHT22;10517;50.742;4.224;2023-06-10T06:44:37;22.50;99.90
20712;DHT22;10517;50.742;4.224;2023-06-10T06:47:03;22.60;99.90
20712;DHT22;10517;50.742;4.224;2023-06-10T06:49:29;22.80;99.90
20712;DHT22;10517;50.742;4.224;2023-06-10T06:51:54;22.90;99.90
20712;DHT22;10517;50.742;4.224;2023-06-10T06:54:20;23.00;99.90
20712;DHT22;10517;50.742;4.224;2023-06-10T06:56:45;23.10;99.90
20712;DHT22;10517;50.742;4.224;2023-06-10T06:59:11;23.10;99.90
20712;DHT22;10517;50.742;4.224;2023-06-10T07:01:39;23.20;99.90
20712;DHT22;10517;50.742;4.224;2023-06-10T07:04:05;23.40;99.90
20712;DHT22;10517;50.742;4.224;2023-06-10T07:06:30;23.50;99.90
20712;DHT22;10517;50.742;4.224;2023-06-10T07:08:56;23.50;99.90
20712;DHT22;10517;50.742;4.224;2023-06-10T07:11:22;23.60;99.90
20712;DHT22;10517;50.742;4.224;2023-06-10T07:13:48;23.60;99.90
20712;DHT22;10517;50.742;4.224;2023-06-10T07:16:14;23.70;99.90
20712;DHT22;10517;50.742;4.224;2023-06-10T07:18:40;23.80;99.90
20712;DHT22;10517;50.742;4.224;2023-06-10T07:21:05;23.90;99.90
20712;DHT22;10517;50.742;4.224;2023-06-10T07:23:31;24.00;99.90
20712;DHT22;10517;50.742;4.224;2023-06-10T07:25:56;24.10;99.90
20712;DHT22;10517;50.742;4.224;2023-06-10T07:28:22;24.30;99.90
20712;DHT22;10517;50.742;4.224;2023-06-10T07:30:47;24.20;99.90
20712;DHT22;10517;50.742;4.224;2023-06-10T07:33:13;24.40;99.90
20712;DHT22;10517;50.742;4.224;2023-06-10T07:35:39;24.40;99.90
20712;DHT22;10517;50.742;4.224;2023-06-10T07:38:04;24.60;99.90
20712;DHT22;10517;50.742;4.224;2023-06-10T07:40:30;24.60;99.90
20712;DHT22;10517;50.742;4.224;2023-06-10T07:42:55;24.50;99.90
20712;DHT22;10517;50.742;4.224;2023-06-10T07:45:21;24.70;99.90
20712;DHT22;10517;50.742;4.224;2023-06-10T07:47:47;24.70;99.90
20712;DHT22;10517;50.742;4.224;2023-06-10T07:50:12;24.90;99.90
20712;DHT22;10517;50.742;4.224;2023-06-10T07:52:38;25.00;99.90
20712;DHT22;10517;50.742;4.224;2023-06-10T07:55:04;25.10;99.90
20712;DHT22;10517;50.742;4.224;2023-06-10T07:57:30;25.10;99.90
20712;DHT22;10517;50.742;4.224;2023-06-10T08:00:00;25.10;99.90
20712;DHT22;10517;50.742;4.224;2023-06-10T08:02:27;25.30;99.90
20712;DHT22;10517;50.742;4.224;2023-06-10T08:04:52;25.40;99.90
20712;DHT22;10517;50.742;4.224;2023-06-10T08:07:18;25.60;99.90
20712;DHT22;10517;50.742;4.224;2023-06-10T08:09:44;25.60;99.90
20712;DHT22;10517;50.742;4.224;2023-06-10T08:12:10;25.70;99.90
20712;DHT22;10517;50.742;4.224;2023-06-10T08:14:35;25.80;99.90
20712;DHT22;10517;50.742;4.224;2023-06-10T08:17:02;25.90;99.90
20712;DHT22;10517;50.742;4.224;2023-06-10T08:19:30;25.90;99.90
20712;DHT22;10517;50.742;4.224;2023-06-10T08:21:56;26.00;99.90
20712;DHT22;10517;50.742;4.224;2023-06-10T08:24:22;26.10;99.90
20712;DHT22;10517;50.742;4.224;2023-06-10T08:26:47;26.20;99.90
20712;DHT22;10517;50.742;4.224;2023-06-10T08:29:13;26.30;99.90
20712;DHT22;10517;50.742;4.224;2023-06-10T08:31:45;26.20;99.90
20712;DHT22;10517;50.742;4.224;2023-06-10T08:34:10;26.30;99.90
20712;DHT22;10517;50.742;4.224;2023-06-10T08:36:37;26.40;99.90
20712;DHT22;10517;50.742;4.224;2023-06-10T08:39:02;26.50;99.90
20712;DHT22;10517;50.742;4.224;2023-06-10T08:41:28;26.60;99.90
20712;DHT22;10517;50.742;4.224;2023-06-10T08:46:42;26.70;99.90
20712;DHT22;10517;50.742;4.224;2023-06-10T08:49:09;26.90;99.90
20712;DHT22;10517;50.742;4.224;2023-06-10T08:51:35;26.90;99.90
20712;DHT22;10517;50.742;4.224;2023-06-10T08:54:15;26.90;99.90
20712;DHT22;10517;50.742;4.224;2023-06-10T08:56:44;26.90;99.90
20712;DHT22;10517;50.742;4.224;2023-06-10T08:59:11;27.10;99.90
20712;DHT22;10517;50.742;4.224;2023-06-10T09:01:37;27.10;99.90
20712;DHT22;10517;50.742;4.224;2023-06-10T09:04:03;27.10;99.90
20712;DHT22;10517;50.742;4.224;2023-06-10T09:06:31;27.20;99.90
20712;DHT22;10517;50.742;4.224;2023-06-10T09:08:57;27.30;99.90
20712;DHT22;10517;50.742;4.224;2023-06-10T09:11:23;27.50;99.90
20712;DHT22;10517;50.742;4.224;2023-06-10T09:13:50;27.50;99.90
20712;DHT22;10517;50.742;4.224;2023-06-10T09:16:15;27.60;99.90
20712;DHT22;10517;50.742;4.224;2023-06-10T09:18:42;27.70;99.90
20712;DHT22;10517;50.742;4.224;2023-06-10T09:21:07;27.70;99.90
20712;DHT22;10517;50.742;4.224;2023-06-10T09:23:33;27.90;99.90
20712;DHT22;10517;50.742;4.224;2023-06-10T09:25:59;28.00;99.90
20712;DHT22;10517;50.742;4.224;2023-06-10T09:28:25;28.10;99.90
20712;DHT22;10517;50.742;4.224;2023-06-10T09:31:05;28.20;99.90
20712;DHT22;10517;50.742;4.224;2023-06-10T09:33:31;28.10;99.90
20712;DHT22;10517;50.742;4.224;2023-06-10T09:35:56;28.30;99.90
20712;DHT22;10517;50.742;4.224;2023-06-10T09:38:30;28.30;99.90
20712;DHT22;10517;50.742;4.224;2023-06-10T09:40:56;28.40;99.90
20712;DHT22;10517;50.742;4.224;2023-06-10T09:43:22;28.50;99.90
20712;DHT22;10517;50.742;4.224;2023-06-10T09:45:48;28.50;99.90
20712;DHT22;10517;50.742;4.224;2023-06-10T09:48:14;28.70;99.90
20712;DHT22;10517;50.742;4.224;2023-06-10T09:50:44;28.50;99.90
20712;DHT22;10517;50.742;4.224;2023-06-10T09:53:10;28.60;99.90
20712;DHT22;10517;50.742;4.224;2023-06-10T09:55:39;28.70;99.90
20712;DHT22;10517;50.742;4.224;2023-06-10T09:58:06;28.80;99.90
20712;DHT22;10517;50.742;4.224;2023-06-10T10:00:33;28.90;99.90
20712;DHT22;10517;50.742;4.224;2023-06-10T10:02:59;29.00;99.90
20712;DHT22;10517;50.742;4.224;2023-06-10T10:05:25;29.10;99.90
20712;DHT22;10517;50.742;4.224;2023-06-10T10:07:51;29.10;99.90
20712;DHT22;10517;50.742;4.224;2023-06-10T10:10:21;29.30;99.90
20712;DHT22;10517;50.742;4.224;2023-06-10T10:12:48;29.50;99.90
20712;DHT22;10517;50.742;4.224;2023-06-10T10:15:16;29.60;99.90
20712;DHT22;10517;50.742;4.224;2023-06-10T10:17:51;29.70;99.90
20712;DHT22;10517;50.742;4.224;2023-06-10T10:20:20;29.80;99.90
20712;DHT22;10517;50.742;4.224;2023-06-10T10:22:49;29.50;99.90
20712;DHT22;10517;50.742;4.224;2023-06-10T10:25:24;29.40;99.90
20712;DHT22;10517;50.742;4.224;2023-06-10T10:27:51;29.50;99.90
20712;DHT22;10517;50.742;4.224;2023-06-10T10:30:17;29.70;99.90
20712;DHT22;10517;50.742;4.224;2023-06-10T10:33:06;29.50;99.90
20712;DHT22;10517;50.742;4.224;2023-06-10T10:35:36;29.70;99.90
20712;DHT22;10517;50.742;4.224;2023-06-10T10:38:02;29.90;99.90
20712;DHT22;10517;50.742;4.224;2023-06-10T10:40:29;30.20;99.50
20712;DHT22;10517;50.742;4.224;2023-06-10T10:42:56;30.40;99.90
20712;DHT22;10517;50.742;4.224;2023-06-10T10:45:23;30.50;99.90
20712;DHT22;10517;50.742;4.224;2023-06-10T10:47:53;30.70;99.90
20712;DHT22;10517;50.742;4.224;2023-06-10T10:50:21;30.80;99.80
20712;DHT22;10517;50.742;4.224;2023-06-10T10:53:01;31.00;99.90
20712;DHT22;10517;50.742;4.224;2023-06-10T10:55:28;31.10;98.40
20712;DHT22;10517;50.742;4.224;2023-06-10T10:58:06;31.10;96.50
20712;DHT22;10517;50.742;4.224;2023-06-10T11:00:32;31.30;96.50
20712;DHT22;10517;50.742;4.224;2023-06-10T11:03:04;31.50;95.30
20712;DHT22;10517;50.742;4.224;2023-06-10T11:05:39;31.60;96.40
20712;DHT22;10517;50.742;4.224;2023-06-10T11:08:05;31.70;95.00
20712;DHT22;10517;50.742;4.224;2023-06-10T11:10:36;31.90;95.70
20712;DHT22;10517;50.742;4.224;2023-06-10T11:13:14;31.70;95.80
20712;DHT22;10517;50.742;4.224;2023-06-10T11:15:45;31.60;95.30
20712;DHT22;10517;50.742;4.224;2023-06-10T11:18:20;31.50;95.70
20712;DHT22;10517;50.742;4.224;2023-06-10T11:20:51;31.70;95.20
20712;DHT22;10517;50.742;4.224;2023-06-10T11:36:24;32.10;93.10
20712;DHT22;10517;50.742;4.224;2023-06-10T11:38:56;32.40;92.40
20712;DHT22;10517;50.742;4.224;2023-06-10T11:41:24;32.40;91.70
20712;DHT22;10517;50.742;4.224;2023-06-10T11:43:52;32.40;92.90
20712;DHT22;10517;50.742;4.224;2023-06-10T11:46:18;32.40;90.80
20712;DHT22;10517;50.742;4.224;2023-06-10T11:48:52;32.30;91.50
20712;DHT22;10517;50.742;4.224;2023-06-10T11:51:18;32.30;91.00
20712;DHT22;10517;50.742;4.224;2023-06-10T11:53:49;32.30;91.70
20712;DHT22;10517;50.742;4.224;2023-06-10T11:56:26;32.20;91.70
20712;DHT22;10517;50.742;4.224;2023-06-10T11:58:57;32.50;92.70
20712;DHT22;10517;50.742;4.224;2023-06-10T12:01:26;32.60;92.60
20712;DHT22;10517;50.742;4.224;2023-06-10T12:04:08;32.80;92.90
20712;DHT22;10517;50.742;4.224;2023-06-10T12:06:49;33.10;92.20
20712;DHT22;10517;50.742;4.224;2023-06-10T12:09:20;33.20;92.50
20712;DHT22;10517;50.742;4.224;2023-06-10T12:11:52;33.10;91.60
20712;DHT22;10517;50.742;4.224;2023-06-10T12:14:50;32.90;91.50
20712;DHT22;10517;50.742;4.224;2023-06-10T12:17:34;32.90;91.30
20712;DHT22;10517;50.742;4.224;2023-06-10T12:20:06;32.50;89.40
20712;DHT22;10517;50.742;4.224;2023-06-10T12:22:41;32.50;91.40
20712;DHT22;10517;50.742;4.224;2023-06-10T12:25:07;31.90;90.30
20712;DHT22;10517;50.742;4.224;2023-06-10T12:27:34;32.00;91.80
20712;DHT22;10517;50.742;4.224;2023-06-10T12:30:01;32.30;92.60
20712;DHT22;10517;50.742;4.224;2023-06-10T12:32:42;32.70;93.00
20712;DHT22;10517;50.742;4.224;2023-06-10T12:35:10;32.60;89.40
20712;DHT22;10517;50.742;4.224;2023-06-10T12:37:37;32.90;93.80
20712;DHT22;10517;50.742;4.224;2023-06-10T12:40:04;32.90;91.10
20712;DHT22;10517;50.742;4.224;2023-06-10T12:42:32;33.00;90.10
20712;DHT22;10517;50.742;4.224;2023-06-10T12:44:59;32.90;91.70
20712;DHT22;10517;50.742;4.224;2023-06-10T12:47:35;33.30;92.60
20712;DHT22;10517;50.742;4.224;2023-06-10T12:50:04;33.80;91.80
20712;DHT22;10517;50.742;4.224;2023-06-10T12:52:30;34.10;91.90
20712;DHT22;10517;50.742;4.224;2023-06-10T12:54:56;34.00;92.80
20712;DHT22;10517;50.742;4.224;2023-06-10T12:57:22;34.50;92.00
20712;DHT22;10517;50.742;4.224;2023-06-10T12:59:48;34.90;90.40
20712;DHT22;10517;50.742;4.224;2023-06-10T13:02:21;35.30;90.40
20712;DHT22;10517;50.742;4.224;2023-06-10T13:04:50;36.00;89.20
20712;DHT22;10517;50.742;4.224;2023-06-10T13:07:15;36.70;84.20
20712;DHT22;10517;50.742;4.224;2023-06-10T13:09:41;37.00;85.40
20712;DHT22;10517;50.742;4.224;2023-06-10T13:12:07;37.50;82.30
20712;DHT22;10517;50.742;4.224;2023-06-10T13:14:33;37.40;82.50
20712;DHT22;10517;50.742;4.224;2023-06-10T13:16:59;38.20;80.70
20712;DHT22;10517;50.742;4.224;2023-06-10T13:19:25;39.20;84.50
20712;DHT22;10517;50.742;4.224;2023-06-10T13:21:51;40.00;77.50
20712;DHT22;10517;50.742;4.224;2023-06-10T13:24:17;40.40;79.30
20712;DHT22;10517;50.742;4.224;2023-06-10T13:26:43;40.60;73.80
20712;DHT22;10517;50.742;4.224;2023-06-10T13:29:09;39.10;72.90
20712;DHT22;10517;50.742;4.224;2023-06-10T13:31:39;38.50;75.40
20712;DHT22;10517;50.742;4.224;2023-06-10T13:34:05;39.20;77.00
20712;DHT22;10517;50.742;4.224;2023-06-10T13:36:31;39.90;75.40
20712;DHT22;10517;50.742;4.224;2023-06-10T13:38:57;40.50;70.60
20712;DHT22;10517;50.742;4.224;2023-06-10T13:41:22;39.20;71.20
20712;DHT22;10517;50.742;4.224;2023-06-10T13:43:48;39.40;74.80
20712;DHT22;10517;50.742;4.224;2023-06-10T13:46:14;38.60;73.40
20712;DHT22;10517;50.742;4.224;2023-06-10T13:48:40;39.40;72.90
20712;DHT22;10517;50.742;4.224;2023-06-10T13:51:05;40.50;67.20
20712;DHT22;10517;50.742;4.224;2023-06-10T13:53:32;42.00;69.70
20712;DHT22;10517;50.742;4.224;2023-06-10T13:55:57;43.30;65.80
20712;DHT22;10517;50.742;4.224;2023-06-10T13:58:23;43.50;66.50
20712;DHT22;10517;50.742;4.224;2023-06-10T14:00:49;43.70;65.70
20712;DHT22;10517;50.742;4.224;2023-06-10T14:03:14;43.80;63.30
20712;DHT22;10517;50.742;4.224;2023-06-10T14:05:40;41.50;61.20
20712;DHT22;10517;50.742;4.224;2023-06-10T14:08:06;39.00;62.60
20712;DHT22;10517;50.742;4.224;2023-06-10T14:10:32;37.10;66.90
20712;DHT22;10517;50.742;4.224;2023-06-10T14:12:58;36.50;64.70
20712;DHT22;10517;50.742;4.224;2023-06-10T14:15:24;36.40;68.20
20712;DHT22;10517;50.742;4.224;2023-06-10T14:17:49;36.70;66.70
20712;DHT22;10517;50.742;4.224;2023-06-10T14:20:15;36.20;66.50
20712;DHT22;10517;50.742;4.224;2023-06-10T14:22:41;37.00;68.10
20712;DHT22;10517;50.742;4.224;2023-06-10T14:25:07;37.80;66.00
20712;DHT22;10517;50.742;4.224;2023-06-10T14:27:32;39.10;67.70
20712;DHT22;10517;50.742;4.224;2023-06-10T14:29:58;40.10;61.90
20712;DHT22;10517;50.742;4.224;2023-06-10T14:32:23;40.90;64.40
20712;DHT22;10517;50.742;4.224;2023-06-10T14:34:49;41.40;63.70
20712;DHT22;10517;50.742;4.224;2023-06-10T14:37:15;42.70;62.90
20712;DHT22;10517;50.742;4.224;2023-06-10T14:39:40;43.50;59.30
20712;DHT22;10517;50.742;4.224;2023-06-10T14:42:06;43.10;57.90
20712;DHT22;10517;50.742;4.224;2023-06-10T14:44:32;41.60;57.80
20712;DHT22;10517;50.742;4.224;2023-06-10T14:46:57;40.20;59.40
20712;DHT22;10517;50.742;4.224;2023-06-10T14:49:23;39.80;59.60
20712;DHT22;10517;50.742;4.224;2023-06-10T14:51:49;41.20;62.80
20712;DHT22;10517;50.742;4.224;2023-06-10T14:54:15;42.70;61.60
20712;DHT22;10517;50.742;4.224;2023-06-10T14:56:41;43.70;58.30
20712;DHT22;10517;50.742;4.224;2023-06-10T14:59:06;44.80;58.10
20712;DHT22;10517;50.742;4.224;2023-06-10T15:01:32;45.00;56.70
20712;DHT22;10517;50.742;4.224;2023-06-10T15:03:58;44.50;52.60
20712;DHT22;10517;50.742;4.224;2023-06-10T15:06:23;44.10;55.60
20712;DHT22;10517;50.742;4.224;2023-06-10T15:08:49;44.80;55.00
20712;DHT22;10517;50.742;4.224;2023-06-10T15:11:15;44.60;52.80
20712;DHT22;10517;50.742;4.224;2023-06-10T15:13:41;44.80;53.60
20712;DHT22;10517;50.742;4.224;2023-06-10T15:16:06;45.40;55.40
20712;DHT22;10517;50.742;4.224;2023-06-10T15:18:32;44.60;52.30
20712;DHT22;10517;50.742;4.224;2023-06-10T15:20:58;45.10;52.10
20712;DHT22;10517;50.742;4.224;2023-06-10T15:23:24;45.60;54.20
20712;DHT22;10517;50.742;4.224;2023-06-10T15:25:50;45.90;49.50
20712;DHT22;10517;50.742;4.224;2023-06-10T15:28:15;44.70;50.70
20712;DHT22;10517;50.742;4.224;2023-06-10T15:30:41;43.70;50.60
20712;DHT22;10517;50.742;4.224;2023-06-10T15:33:07;42.10;51.90
20712;DHT22;10517;50.742;4.224;2023-06-10T15:35:33;42.60;51.40
20712;DHT22;10517;50.742;4.224;2023-06-10T15:37:59;43.40;51.70
20712;DHT22;10517;50.742;4.224;2023-06-10T15:40:24;44.10;52.40
20712;DHT22;10517;50.742;4.224;2023-06-10T15:42:51;44.70;52.80
20712;DHT22;10517;50.742;4.224;2023-06-10T15:45:16;45.20;51.30
20712;DHT22;10517;50.742;4.224;2023-06-10T15:47:42;45.60;47.90
20712;DHT22;10517;50.742;4.224;2023-06-10T15:50:08;46.30;48.90
20712;DHT22;10517;50.742;4.224;2023-06-10T15:52:34;46.30;47.90